Portada
METAR-TAF:

METAR-TAF

Aeropuertos :

Aeropuerto de Nápoles-Capodichino

Nápoles, Italia

latitud: 40-51N, longitud: 014-18E, altitud: 88 m

Observación

El informe se hizo hace 41 minutos, a las 02:50 UTC
Viento 2 kt del norte-noroeste
Temperatura 14°C
Humedad 88%
Presión 1015 hPa
Visibilidad 10 km o más
Nubes dispersas a una altura de 6000 ft

METAR: LIRN 010250Z 33002KT 9999 SCT060 14/12 Q1015 NOSIG

Hora: 05:31 (03:31 UTC)

Pronóstico

El informe se hizo hace 4 horas y 31 minutos, a las 23:00 UTC
Pronóstico válido del 01 a las 00 UTC al 01 a las 24 UTC
Viento 7 kt del noreste
Visibilidad 10 km o más
Escasas nubes a una altura de 3000 ft
Evolucionando progresivamente
del 01 a las 08 UTC al 01 a las 10 UTC
Viento 10 kt del oeste
Evolucionando progresivamente
del 01 a las 17 UTC al 01 a las 19 UTC
Viento 7 kt del noreste

TAF: LIRN 312300Z 0100/0124 04007KT 9999 FEW030 BECMG 0108/0110 26010KT BECMG 0117/0119 04007KT

Observaciones y pronósticos meteorológicos de más de 4000 aeropuertos (mensajes METAR y TAF).

Los puntos amarillos y rojos representan las estaciones disponibles.

Ponga el ratón en el punto deseado para ver el nombre de la estación.

Haga clic para ver las observaciones y los pronósticos meteorológicos.

Para cambiar el mapa : haga clic en los botones verdes con una cruz de color negro para hacer un zoom, en el botón verde con un guión para alejar o en las flechas verdes para mapas adyacentes.


METAR-TAF: